Time;durP1;ratioP1;P1;durP2;ratioP2;P2;SDS_P1;SDS_P2;PMS_P1;PMS_P2;Temp;Humidity;BMP_temperature;BMP_pressure;BME280_temperature;BME280_humidity;BME280_pressure;Samples;Min_cycle;Max_cycle;Signal;HPM_P1;HPM_P2
2021/10/09 00:01:38;;;;;;;33.67;25.17;;;9.60;82.60;;;8.07;90.41;96860.84;4955751;28;20117;-67
2021/10/09 00:04:05;;;;;;;31.73;24.05;;;9.60;82.50;;;8.05;90.61;96862.00;4940778;28;20462;-68
2021/10/09 00:06:31;;;;;;;31.65;24.15;;;9.70;82.40;;;8.04;90.33;96860.34;4934651;28;20042;-68
2021/10/09 00:08:57;;;;;;;33.25;25.27;;;9.60;82.40;;;8.04;89.93;96865.59;4940831;28;20038;-68
2021/10/09 00:11:34;;;;;;;36.10;25.15;;;9.60;82.40;;;8.01;89.90;96858.03;4953994;28;20125;-68
2021/10/09 00:14:00;;;;;;;23.75;18.88;;;9.60;82.40;;;7.98;90.17;96852.13;4944909;28;20479;-68
2021/10/09 00:16:26;;;;;;;32.30;22.33;;;9.60;82.30;;;7.98;90.39;96852.13;4940751;28;20303;-68
2021/10/09 00:18:52;;;;;;;30.02;22.45;;;9.60;82.40;;;7.97;89.94;96855.72;4935752;28;20480;-67
2021/10/09 00:21:18;;;;;;;31.08;22.95;;;9.60;82.50;;;7.99;89.98;96858.19;4936252;28;20396;-68
2021/10/09 00:23:43;;;;;;;31.25;21.65;;;9.60;82.50;;;7.97;90.05;96854.91;4947424;28;20092;-68
2021/10/09 00:26:09;;;;;;;27.85;21.45;;;9.60;82.50;;;7.96;90.04;96854.09;4953322;28;20105;-68
2021/10/09 00:28:35;;;;;;;27.63;22.15;;;9.60;82.40;;;7.95;89.91;96847.22;4943994;28;20046;-68
2021/10/09 00:31:01;;;;;;;30.10;21.20;;;9.60;82.20;;;7.94;90.69;96845.56;4965239;28;20137;-69
2021/10/09 00:33:27;;;;;;;30.70;22.65;;;9.50;82.50;;;7.92;91.08;96842.28;4972547;28;20099;-68
2021/10/09 00:35:53;;;;;;;28.48;21.58;;;9.60;82.50;;;7.91;90.24;96848.47;4936573;28;20050;-69
2021/10/09 00:38:18;;;;;;;30.83;21.15;;;9.60;82.50;;;7.87;90.35;96841.91;4947336;28;20034;-68
2021/10/09 00:40:44;;;;;;;30.02;21.98;;;9.60;82.40;;;7.90;90.34;96848.63;4970688;28;20418;-67
2021/10/09 00:43:10;;;;;;;31.15;21.45;;;9.60;82.40;;;7.90;90.18;96849.44;4971556;28;20125;-68
2021/10/09 00:45:36;;;;;;;27.65;20.73;;;9.60;82.30;;;7.89;90.31;96849.59;4934298;28;20183;-67
2021/10/09 00:48:02;;;;;;;27.38;20.73;;;9.50;82.40;;;7.90;90.22;96849.44;4934954;28;20121;-68
2021/10/09 00:50:28;;;;;;;28.52;22.02;;;9.50;82.40;;;7.88;90.02;96846.16;4956271;28;20380;-67
2021/10/09 00:52:55;;;;;;;26.05;20.42;;;9.50;82.40;;;7.86;90.08;96840.25;4955148;28;20046;-68
2021/10/09 00:55:21;;;;;;;28.58;21.00;;;9.40;82.40;;;7.83;90.00;96837.94;4937100;28;20133;-68
2021/10/09 00:57:47;;;;;;;28.42;21.27;;;9.40;82.30;;;7.81;90.43;96833.84;4939591;28;20439;-68
2021/10/09 01:00:13;;;;;;;26.30;20.60;;;9.50;82.30;;;7.79;90.58;96843.66;4955476;28;20101;-68
2021/10/09 01:02:39;;;;;;;25.48;20.33;;;9.40;82.20;;;7.79;90.75;96841.84;4955655;28;20038;-68
2021/10/09 01:05:07;;;;;;;24.17;19.67;;;9.40;82.40;;;7.79;90.95;96836.63;4940269;28;20514;-67
2021/10/09 01:07:33;;;;;;;26.92;20.20;;;9.50;82.40;;;7.78;90.33;96839.38;4955985;28;20085;-67
2021/10/09 01:09:59;;;;;;;24.05;20.55;;;9.40;82.20;;;7.76;90.31;96836.91;4956465;28;20035;-68
2021/10/09 01:12:25;;;;;;;29.48;20.48;;;9.40;82.30;;;7.77;90.64;96835.94;4929028;28;20038;-68
2021/10/09 01:14:51;;;;;;;29.08;20.52;;;9.40;82.50;;;7.77;90.07;96841.19;4961164;28;20061;-67
2021/10/09 01:17:17;;;;;;;26.20;20.35;;;9.40;82.30;;;7.76;90.31;96834.31;4972431;28;20109;-67
2021/10/09 01:19:42;;;;;;;29.23;20.15;;;9.40;82.30;;;7.74;90.32;96831.03;4977024;28;20136;-68
2021/10/09 01:22:09;;;;;;;26.42;19.13;;;9.40;82.40;;;7.74;91.01;96833.63;4995364;28;20453;-67
2021/10/09 01:24:36;;;;;;;25.50;19.40;;;9.40;82.40;;;7.73;90.58;96833.78;4978823;28;20042;-67
2021/10/09 01:27:03;;;;;;;26.08;19.15;;;9.40;82.40;;;7.72;90.64;96830.34;4995364;28;20096;-67
2021/10/09 01:29:28;;;;;;;26.48;18.63;;;9.40;82.50;;;7.72;90.57;96830.34;4960456;28;20034;-67
2021/10/09 01:31:54;;;;;;;27.33;18.98;;;9.30;82.50;;;7.71;91.38;96831.34;4959751;28;20076;-68
2021/10/09 01:34:22;;;;;;;25.83;18.70;;;9.40;82.60;;;7.70;91.12;96832.31;4941760;28;20448;-67
2021/10/09 01:36:48;;;;;;;26.42;19.73;;;9.30;82.90;;;7.70;91.28;96837.53;4957393;28;20038;-68
2021/10/09 01:39:15;;;;;;;22.08;18.67;;;9.30;82.80;;;7.68;91.42;96840.28;4955989;28;20145;-67
2021/10/09 01:41:44;;;;;;;27.70;18.70;;;9.30;82.80;;;7.66;91.21;96837.00;4956330;28;20111;-68
2021/10/09 01:44:09;;;;;;;26.20;20.08;;;9.30;82.80;;;7.66;90.65;96830.94;4956361;28;20487;-67
2021/10/09 01:46:35;;;;;;;28.10;20.40;;;9.30;82.70;;;7.62;91.25;96835.66;4966580;28;20062;-67
2021/10/09 01:49:01;;;;;;;24.13;19.23;;;9.20;82.70;;;7.62;90.86;96832.22;4956179;28;20030;-69
2021/10/09 01:51:29;;;;;;;28.35;20.15;;;9.20;82.70;;;7.61;91.09;96822.72;4978618;28;20049;-67
2021/10/09 01:53:54;;;;;;;24.30;18.70;;;9.20;82.70;;;7.58;91.09;96823.03;4967761;28;20026;-68
2021/10/09 01:56:20;;;;;;;23.92;19.70;;;9.20;82.70;;;7.55;91.04;96833.81;4941885;28;20129;-68
2021/10/09 01:58:46;;;;;;;26.92;19.42;;;9.20;82.70;;;7.52;91.18;96834.13;4958593;28;20109;-67
2021/10/09 02:01:12;;;;;;;26.33;19.48;;;9.10;82.90;;;7.49;91.33;96818.72;4942868;28;20170;-68
2021/10/09 02:03:38;;;;;;;27.25;20.75;;;9.10;83.10;;;7.45;91.87;96825.22;4942320;28;20042;-68
2021/10/09 02:06:04;;;;;;;23.55;19.20;;;9.10;83.50;;;7.44;91.94;96824.38;4939990;28;20019;-68
2021/10/09 02:08:30;;;;;;;26.42;20.42;;;9.10;83.60;;;7.41;91.60;96822.09;4968972;28;20109;-67
2021/10/09 02:13:30;;;;;;;29.92;20.25;;;9.00;83.80;;;7.40;91.95;96822.22;4976488;28;20113;-67
2021/10/09 02:26:53;;;;;;;28.20;21.65;;;9.00;83.90;;;7.34;92.16;96834.97;4963672;28;20057;-67
2021/10/09 02:29:19;;;;;;;29.52;19.52;;;9.00;83.90;;;7.34;92.37;96821.88;4955068;28;20031;-67
2021/10/09 02:31:45;;;;;;;25.20;20.95;;;9.00;83.80;;;7.33;92.60;96820.22;4957451;28;20381;-67
2021/10/09 02:34:11;;;;;;;29.75;20.60;;;9.00;83.70;;;7.31;92.49;96816.94;4956895;28;20038;-67
2021/10/09 02:36:37;;;;;;;26.63;20.58;;;8.90;83.70;;;7.30;92.67;96817.09;4955359;28;20445;-68
2021/10/09 02:39:03;;;;;;;28.55;20.73;;;8.90;83.90;;;7.27;93.15;96815.59;4937381;28;20523;-67
2021/10/09 02:41:29;;;;;;;28.25;20.77;;;8.90;84.00;;;7.28;92.61;96814.63;4938783;28;20043;-66
2021/10/09 02:43:55;;;;;;;29.38;20.80;;;8.90;83.90;;;7.26;92.79;96819.19;4957295;28;20403;-67
2021/10/09 02:46:21;;;;;;;26.75;21.23;;;8.90;83.90;;;7.26;93.21;96819.19;4951923;28;20268;-67
2021/10/09 02:48:47;;;;;;;28.98;21.48;;;8.90;84.00;;;7.24;92.72;96821.16;4940898;28;20031;-67
2021/10/09 02:51:12;;;;;;;26.60;20.17;;;8.90;84.20;;;7.25;92.96;96820.19;4957304;28;20492;-67
2021/10/09 02:53:38;;;;;;;29.63;22.02;;;8.90;84.10;;;7.23;92.92;96816.84;4957646;28;20521;-67
2021/10/09 02:56:04;;;;;;;28.70;21.88;;;8.90;84.20;;;7.23;93.17;96821.28;4957134;28;20137;-67
2021/10/09 02:58:30;;;;;;;27.85;21.70;;;8.80;84.20;;;7.21;93.13;96821.41;4933214;28;20047;-67
2021/10/09 03:00:55;;;;;;;28.10;21.55;;;8.90;84.20;;;7.20;93.34;96816.34;4940598;28;20032;-67
2021/10/09 03:03:21;;;;;;;30.55;21.88;;;8.80;84.20;;;7.16;93.06;96826.28;4933863;28;20042;-67
2021/10/09 03:05:47;;;;;;;30.95;22.02;;;8.80;84.50;;;7.15;93.68;96819.41;4962468;28;21024;-67
2021/10/09 03:08:13;;;;;;;29.48;21.15;;;8.80;84.30;;;7.16;93.11;96822.84;4954240;28;20027;-67
2021/10/09 03:10:39;;;;;;;32.67;21.65;;;8.80;84.30;;;7.13;93.26;96823.97;4954252;28;20031;-68
2021/10/09 03:13:05;;;;;;;26.88;21.95;;;8.80;84.40;;;7.13;92.96;96821.34;4955233;28;20046;-67
2021/10/09 03:15:30;;;;;;;29.00;22.35;;;8.80;84.30;;;7.11;93.44;96825.91;4955073;28;20038;-67
2021/10/09 03:17:56;;;;;;;29.92;20.80;;;8.70;84.30;;;7.10;93.50;96821.66;4940100;28;20030;-68
2021/10/09 03:20:22;;;;;;;29.30;21.63;;;8.70;84.30;;;7.07;93.84;96814.94;4954355;28;20511;-68
2021/10/09 03:22:48;;;;;;;32.88;22.60;;;8.70;84.60;;;7.07;93.94;96811.50;4948418;28;20113;-67
2021/10/09 03:25:14;;;;;;;31.73;24.38;;;8.70;84.60;;;7.07;93.55;96816.72;4956417;28;20045;-68
2021/10/09 03:27:40;;;;;;;30.05;22.10;;;8.70;84.50;;;7.06;93.92;96822.94;4939827;28;20081;-67
2021/10/09 03:30:07;;;;;;;36.63;22.77;;;8.70;84.60;;;7.04;93.78;96817.84;4936850;28;20034;-67
2021/10/09 03:32:35;;;;;;;30.15;22.75;;;8.70;84.80;;;7.03;93.81;96828.47;4965796;28;20417;-68
2021/10/09 03:35:01;;;;;;;32.17;22.52;;;8.70;84.80;;;7.02;93.52;96827.66;4939423;28;20086;-67
2021/10/09 03:37:27;;;;;;;31.67;22.75;;;8.70;84.70;;;7.01;94.08;96825.16;4936912;28;20043;-67
2021/10/09 03:39:54;;;;;;;32.65;23.38;;;8.70;84.70;;;7.02;93.92;96832.06;4952958;28;20038;-67
2021/10/09 03:43:06;;;;;;;34.28;23.95;;;8.70;84.60;;;7.00;93.52;96831.34;4972435;28;20045;-67
2021/10/09 03:45:25;;;;;;;31.90;23.60;;;8.70;84.70;;;6.98;93.92;96826.28;4947928;28;20034;-67
2021/10/09 03:52:57;;;;;;;32.45;22.58;;;8.60;84.60;;;6.94;94.13;96831.97;4969250;28;20053;-67
2021/10/09 03:55:23;;;;;;;37.53;24.05;;;8.60;84.60;;;6.92;94.11;96826.88;4940390;28;20420;-67
2021/10/09 03:57:49;;;;;;;33.45;24.75;;;8.60;84.50;;;6.92;93.79;96831.28;4937101;28;20066;-67
2021/10/09 04:00:17;;;;;;;33.92;25.30;;;8.60;84.40;;;6.90;94.29;96833.22;4931169;28;20117;-67
2021/10/09 04:02:43;;;;;;;37.47;23.15;;;8.60;84.40;;;6.88;93.84;96833.38;4941884;28;20522;-67
2021/10/09 04:05:09;;;;;;;37.00;25.50;;;8.60;84.40;;;6.89;93.99;96836.81;4952332;28;20054;-67
2021/10/09 04:07:35;;;;;;;35.55;23.90;;;8.60;84.50;;;6.86;93.86;96835.31;4952601;28;20109;-67
2021/10/09 04:10:01;;;;;;;33.15;26.65;;;8.60;84.50;;;6.84;93.98;96839.88;4956167;28;20105;-67
2021/10/09 04:12:27;;;;;;;32.83;24.63;;;8.50;84.70;;;6.82;93.72;96835.78;4940853;28;20030;-67
2021/10/09 04:14:52;;;;;;;33.03;25.67;;;8.50;84.70;;;6.82;94.37;96830.53;4947562;28;20061;-67
2021/10/09 04:17:18;;;;;;;39.10;25.83;;;8.50;84.70;;;6.82;94.17;96831.38;4952832;28;20035;-67
2021/10/09 04:19:44;;;;;;;35.72;26.40;;;8.50;84.80;;;6.82;93.91;96830.53;4964723;28;20034;-67
2021/10/09 04:22:10;;;;;;;32.55;24.55;;;8.50;84.90;;;6.81;94.47;96834.94;4936374;28;20051;-66
2021/10/09 04:24:35;;;;;;;37.45;27.08;;;8.50;84.90;;;6.79;94.25;96838.66;4932299;28;20535;-67
2021/10/09 04:27:01;;;;;;;36.72;28.13;;;8.50;84.90;;;6.78;94.50;96837.00;4940699;28;20113;-67
2021/10/09 04:29:27;;;;;;;35.88;28.70;;;8.50;84.90;;;6.69;94.32;96828.25;4935346;28;20164;-67
2021/10/09 04:31:53;;;;;;;41.03;28.35;;;8.40;84.90;;;6.71;94.98;96832.38;4940573;28;20388;-69
2021/10/09 04:34:19;;;;;;;37.22;26.88;;;8.40;84.90;;;6.72;94.26;96836.63;4954371;28;20166;-68
2021/10/09 04:36:44;;;;;;;37.33;26.25;;;8.40;84.90;;;6.68;94.49;96837.91;4952584;28;20035;-69
2021/10/09 04:39:11;;;;;;;40.22;28.33;;;8.30;85.00;;;6.67;94.55;96838.88;4967973;28;20491;-67
2021/10/09 04:41:36;;;;;;;38.15;27.58;;;8.40;85.10;;;6.64;94.47;96839.16;4995194;28;20053;-67
2021/10/09 04:44:02;;;;;;;41.17;27.83;;;8.30;85.00;;;6.62;94.27;96841.09;4995923;28;20466;-67
2021/10/09 04:46:28;;;;;;;37.28;27.80;;;8.30;85.10;;;6.63;94.76;96847.16;4981518;28;20623;-68
2021/10/09 04:48:54;;;;;;;39.53;28.88;;;8.30;85.20;;;6.62;94.68;96841.09;4956445;28;20427;-67
2021/10/09 04:51:19;;;;;;;36.15;27.25;;;8.30;85.10;;;6.60;94.36;96837.00;4972674;28;20031;-68
2021/10/09 04:53:45;;;;;;;38.30;29.67;;;8.30;84.90;;;6.60;94.58;96848.28;4956067;28;20194;-67
2021/10/09 04:56:11;;;;;;;44.22;28.27;;;8.30;84.80;;;6.59;94.17;96854.47;4956827;28;20512;-67
2021/10/09 04:58:37;;;;;;;40.35;29.75;;;8.30;84.80;;;6.59;94.48;96848.44;4957114;28;20058;-68
2021/10/09 05:01:02;;;;;;;43.53;31.42;;;8.30;85.10;;;6.59;95.02;96846.63;4980360;28;20026;-66
2021/10/09 05:03:28;;;;;;;46.50;32.63;;;8.30;85.00;;;6.60;94.66;96852.69;4960105;28;20125;-68
2021/10/09 05:05:54;;;;;;;43.13;30.63;;;8.30;84.90;;;6.59;94.92;96851.88;4959947;28;20042;-66
2021/10/09 05:08:20;;;;;;;44.10;31.70;;;8.30;85.10;;;6.61;95.31;96856.94;4940070;28;20162;-67
2021/10/09 05:10:45;;;;;;;41.05;29.98;;;8.40;84.90;;;6.60;95.04;96858.72;4956230;28;20185;-68
2021/10/09 05:13:11;;;;;;;41.63;32.80;;;8.30;84.90;;;6.59;95.41;96862.31;4972596;28;20035;-67
2021/10/09 05:15:41;;;;;;;42.55;28.20;;;8.30;84.90;;;6.58;94.87;96855.44;4974873;28;20050;-67
2021/10/09 05:18:08;;;;;;;40.80;29.07;;;8.30;84.70;;;6.56;94.55;96869.59;4944097;28;20484;-67
2021/10/09 05:20:34;;;;;;;41.03;29.75;;;8.20;84.80;;;6.52;94.58;96858.63;4943525;28;20034;-67
2021/10/09 05:22:59;;;;;;;39.60;29.00;;;8.20;84.60;;;6.51;95.01;96864.00;4943750;28;20023;-67
2021/10/09 05:25:26;;;;;;;41.03;31.92;;;8.20;84.60;;;6.49;94.50;96868.53;4959236;28;20121;-67
2021/10/09 05:27:57;;;;;;;43.25;28.75;;;8.20;84.60;;;6.49;94.84;96871.97;4943511;28;20034;-66
2021/10/09 05:30:23;;;;;;;41.50;28.60;;;8.20;84.60;;;6.45;94.33;96873.25;4959892;28;20495;-68
2021/10/09 05:32:59;;;;;;;34.97;29.42;;;8.20;84.60;;;6.46;94.10;96872.28;4975752;28;20062;-68
2021/10/09 05:35:26;;;;;;;45.55;28.80;;;8.20;84.50;;;6.45;93.89;96868.84;4961853;28;20518;-67
2021/10/09 05:37:52;;;;;;;39.05;29.63;;;8.20;84.20;;;6.44;94.47;96868.97;4939729;28;20058;-68
2021/10/09 05:40:18;;;;;;;56.15;42.55;;;8.20;84.20;;;6.46;94.06;96874.88;4955650;28;20041;-68
2021/10/09 05:42:43;;;;;;;46.15;34.65;;;8.20;84.50;;;6.45;94.42;96875.84;4951491;28;20134;-68
2021/10/09 05:45:09;;;;;;;44.92;35.50;;;8.20;84.50;;;6.46;94.64;96872.28;4944106;28;20670;-69
2021/10/09 05:47:38;;;;;;;46.60;32.65;;;8.30;84.20;;;6.47;94.15;96876.53;4971010;28;20500;-68
2021/10/09 05:50:07;;;;;;;44.95;30.38;;;8.30;84.20;;;6.46;94.25;96872.28;4984347;28;20056;-68
2021/10/09 05:52:44;;;;;;;42.35;29.17;;;8.30;83.90;;;6.46;94.03;96874.88;4961553;28;20060;-69
2021/10/09 05:55:33;;;;;;;52.95;35.13;;;8.20;83.80;;;6.47;93.93;96883.53;4982045;28;20130;-67
2021/10/09 05:58:11;;;;;;;63.03;44.97;;;8.30;83.80;;;6.49;94.44;96885.03;4977926;28;20037;-68
2021/10/09 06:25:41;;;;;;;44.35;31.17;;;8.60;82.80;;;6.70;93.14;96895.28;4957969;28;20049;-67
2021/10/09 06:44:54;;;;;;;49.17;32.38;;;9.10;81.10;;;7.17;92.01;96911.66;4962757;28;20069;-67
2021/10/09 07:00:40;;;;;;;52.22;38.92;;;9.10;80.20;;;7.26;90.73;96921.25;4975077;28;20122;-66
2021/10/09 07:03:05;;;;;;;46.00;36.22;;;9.10;79.80;;;7.27;90.30;96925.50;4941196;28;20038;-67
2021/10/09 07:05:33;;;;;;;49.22;37.28;;;9.10;79.90;;;7.30;90.04;96924.41;4954384;28;20133;-69
2021/10/09 07:08:04;;;;;;;55.00;38.58;;;9.10;79.80;;;7.30;90.25;96927.84;4942164;28;20484;-68
2021/10/09 07:10:30;;;;;;;52.67;40.10;;;9.10;79.80;;;7.32;90.09;96922.44;4959241;28;20035;-68
2021/10/09 07:12:56;;;;;;;50.70;37.90;;;9.20;80.30;;;7.35;90.04;96928.22;4954364;28;20627;-68
2021/10/09 07:15:22;;;;;;;49.38;37.63;;;9.20;80.00;;;7.36;89.45;96929.84;4949126;28;20114;-67
2021/10/09 07:17:48;;;;;;;56.20;41.30;;;9.10;79.30;;;7.36;89.52;96937.69;4927246;28;20055;-68
2021/10/09 07:20:15;;;;;;;50.38;37.40;;;9.10;79.80;;;7.42;89.55;96938.06;4964177;28;20457;-67
2021/10/09 07:22:42;;;;;;;50.95;38.38;;;9.20;79.80;;;7.43;89.04;96945.78;4951421;28;20038;-67
2021/10/09 07:25:08;;;;;;;52.15;38.50;;;9.30;79.40;;;7.43;89.13;96945.78;4941635;28;20042;-65
2021/10/09 07:27:34;;;;;;;51.75;37.75;;;9.20;79.80;;;7.44;88.66;96943.97;4939854;28;20034;-68
2021/10/09 07:30:00;;;;;;;51.15;38.70;;;9.20;79.20;;;7.45;89.37;96943.81;4956798;28;20494;-65
2021/10/09 07:32:26;;;;;;;51.00;38.95;;;9.20;79.50;;;7.46;89.00;96950.72;4932565;28;20039;-67
2021/10/09 07:34:52;;;;;;;51.15;38.47;;;9.30;79.10;;;7.47;88.54;96944.53;4941072;28;20054;-66
2021/10/09 07:37:17;;;;;;;51.47;38.78;;;9.30;79.60;;;7.52;88.66;96944.91;4975916;28;20496;-67
2021/10/09 07:39:43;;;;;;;49.58;38.38;;;9.40;79.00;;;7.55;88.58;96955.06;4921035;28;20395;-69
2021/10/09 07:42:09;;;;;;;51.75;38.15;;;9.50;79.00;;;7.58;88.38;96959.19;4942440;28;20034;-68
2021/10/09 07:44:35;;;;;;;51.53;38.20;;;9.50;78.50;;;7.64;89.30;96966.44;4972470;28;20149;-68
2021/10/09 07:47:01;;;;;;;45.83;36.55;;;9.60;79.40;;;7.70;88.41;96958.00;4951969;28;20391;-68
2021/10/09 07:49:27;;;;;;;50.85;38.33;;;9.60;78.90;;;7.72;88.04;96956.06;4937216;28;20087;-67
2021/10/09 07:51:53;;;;;;;51.17;39.55;;;9.70;78.20;;;7.80;88.54;96958.72;4934981;28;20100;-67
2021/10/09 07:54:19;;;;;;;60.53;44.80;;;9.80;78.60;;;7.89;88.29;96963.06;4940496;28;20105;-67
2021/10/09 07:56:44;;;;;;;55.15;39.90;;;9.90;78.00;;;7.95;88.44;96962.47;4940596;28;20151;-67
2021/10/09 07:59:10;;;;;;;59.15;41.13;;;10.00;77.80;;;7.99;88.25;96968.22;4939744;28;20035;-67
2021/10/09 08:01:36;;;;;;;54.88;39.38;;;10.00;77.70;;;8.05;87.76;96964.19;4949315;28;20157;-69
2021/10/09 08:04:02;;;;;;;51.03;39.08;;;10.00;77.20;;;8.08;87.42;96964.69;4944391;28;20582;-66
2021/10/09 08:06:27;;;;;;;47.83;37.60;;;10.10;77.20;;;8.15;87.12;96962.31;4949121;28;20121;-69
2021/10/09 08:08:53;;;;;;;52.00;37.85;;;10.10;77.00;;;8.15;87.60;96967.53;4937048;28;20041;-69
2021/10/09 08:11:19;;;;;;;59.97;38.85;;;10.10;77.20;;;8.22;87.84;96964.16;4944641;28;20129;-64
2021/10/09 08:13:45;;;;;;;57.78;42.50;;;10.20;77.10;;;8.25;87.82;96971.72;4955306;28;20348;-68
2021/10/09 08:16:11;;;;;;;58.38;45.80;;;10.20;77.10;;;8.28;87.71;96962.72;4939764;28;20125;-64
2021/10/09 08:18:37;;;;;;;53.17;40.08;;;10.30;77.00;;;8.34;87.27;96967.38;4955201;28;20037;-69
2021/10/09 08:21:06;;;;;;;49.38;39.00;;;10.40;77.00;;;8.38;86.57;96968.72;4951187;28;20047;-66
2021/10/09 08:23:53;;;;;;;52.95;37.75;;;10.40;76.80;;;8.47;86.84;96973.03;4955995;28;20031;-70
2021/10/09 08:26:47;;;;;;;49.00;38.10;;;10.60;76.40;;;8.47;86.82;96978.28;4957434;28;20031;-66
2021/10/09 08:40:12;;;;;;;48.47;34.33;;;11.40;73.40;;;9.06;84.72;96973.19;4976091;28;20506;-66
2021/10/09 08:42:38;;;;;;;47.28;34.80;;;11.40;72.40;;;9.14;84.99;96979.28;4971591;28;20504;-69
2021/10/09 08:45:05;;;;;;;47.97;36.28;;;11.50;72.60;;;9.25;84.68;96972.09;4944168;28;20180;-69
2021/10/09 08:47:34;;;;;;;46.00;34.80;;;11.60;72.90;;;9.33;85.05;96980.00;4964011;28;20032;-67
2021/10/09 08:50:03;;;;;;;43.55;34.15;;;11.60;72.40;;;9.38;83.21;96972.47;4934546;28;20035;-65
2021/10/09 08:52:30;;;;;;;42.17;32.97;;;11.70;72.10;;;9.37;82.82;96973.44;4952702;28;20113;-66
2021/10/09 08:54:56;;;;;;;47.70;32.65;;;11.60;71.00;;;9.43;83.17;96972.81;4951256;28;20117;-70
2021/10/09 08:57:24;;;;;;;49.47;33.40;;;11.60;71.10;;;9.50;83.00;96971.16;4955369;28;20053;-70
2021/10/09 09:00:10;;;;;;;54.95;33.28;;;12.10;70.40;;;9.71;82.31;96973.34;4955407;28;20035;-68
2021/10/09 09:02:45;;;;;;;41.08;29.13;;;12.40;70.10;;;10.04;82.52;96976.84;4943500;28;20038;-69
2021/10/09 09:05:30;;;;;;;35.92;27.83;;;13.30;68.10;;;10.48;81.54;96976.53;4957572;28;20031;-68
2021/10/09 09:33:07;;;;;;;29.85;22.00;;;21.20;42.40;;;15.43;70.41;96956.19;4976241;28;20097;-67
2021/10/09 09:36:24;;;;;;;30.65;22.35;;;21.50;42.30;;;15.91;67.94;96944.53;4953712;28;20046;-67
2021/10/09 09:41:20;;;;;;;27.77;20.23;;;24.10;37.60;;;17.17;62.24;96946.28;4962088;28;20073;-67
2021/10/09 09:43:46;;;;;;;26.50;19.52;;;24.70;35.40;;;17.64;68.71;96947.72;4955380;28;20038;-68
2021/10/09 09:46:23;;;;;;;25.55;19.08;;;25.50;33.90;;;18.07;60.41;96945.25;4957810;28;20034;-68
2021/10/09 09:48:49;;;;;;;27.00;20.40;;;26.00;33.30;;;18.32;66.35;96943.41;4970896;28;20062;-68
2021/10/09 09:51:17;;;;;;;30.35;21.60;;;26.00;33.00;;;18.38;65.44;96946.28;4954977;28;20169;-68
2021/10/09 09:53:45;;;;;;;26.80;19.10;;;25.70;32.70;;;18.23;63.80;96934.06;4939039;28;20039;-67
2021/10/09 09:56:12;;;;;;;39.35;28.65;;;24.60;34.50;;;18.26;63.45;96944.28;4944652;28;20062;-67
2021/10/09 09:58:43;;;;;;;41.05;28.20;;;24.20;35.30;;;18.28;60.33;96941.41;4958267;28;20110;-67
2021/10/09 10:01:11;;;;;;;24.25;17.25;;;23.70;36.70;;;18.12;59.59;96940.13;4941606;28;20042;-68
2021/10/09 10:03:37;;;;;;;25.33;18.75;;;23.80;35.80;;;18.02;60.69;96934.44;4942121;28;20380;-67
2021/10/09 10:06:03;;;;;;;22.35;17.15;;;24.90;33.90;;;18.10;60.18;96928.84;4940640;28;20070;-66
2021/10/09 10:08:29;;;;;;;27.95;19.27;;;26.40;31.40;;;18.22;60.96;96927.13;4936050;28;20133;-69
2021/10/09 10:10:56;;;;;;;27.13;17.88;;;27.20;30.30;;;18.38;60.68;96925.78;4971123;28;20038;-68
2021/10/09 10:13:28;;;;;;;28.02;19.88;;;26.90;30.80;;;18.48;55.64;96927.94;4930923;28;20526;-68
2021/10/09 10:15:54;;;;;;;26.48;18.00;;;26.20;31.60;;;18.58;59.14;96922.94;4961328;28;20442;-69
2021/10/09 10:18:45;;;;;;;26.75;17.83;;;25.70;32.20;;;18.69;52.61;96921.44;4957937;28;20041;-68
2021/10/09 10:21:14;;;;;;;;;;;26.00;32.40;;;18.83;51.51;96915.75;4982203;28;20088;-68
2021/10/09 10:23:42;;;;;;;33.58;18.83;;;26.70;30.90;;;19.06;56.70;96914.28;4974159;28;19957;-67
2021/10/09 10:26:19;;;;;;;27.77;17.80;;;27.60;29.90;;;19.40;52.25;96921.66;4954666;28;20066;-65
2021/10/09 10:28:46;;;;;;;25.70;17.20;;;28.80;28.60;;;19.70;57.14;96924.41;5005715;28;20062;-67
2021/10/09 10:31:12;;;;;;;23.83;16.67;;;29.10;27.60;;;20.23;57.50;96912.91;4938820;28;20502;-68
2021/10/09 10:33:40;;;;;;;22.73;15.60;;;31.10;25.70;;;20.92;56.58;96926.56;4939019;28;20107;-68
2021/10/09 10:36:08;;;;;;;22.52;14.55;;;31.40;25.20;;;21.38;53.60;96915.81;4935870;28;20116;-68
2021/10/09 10:38:49;;;;;;;18.95;14.57;;;31.20;24.70;;;21.83;50.90;96916.94;4953229;28;20170;-68
2021/10/09 10:41:20;;;;;;;21.38;14.50;;;32.40;23.60;;;22.26;53.08;96916.38;4971833;28;20050;-69
2021/10/09 10:43:52;;;;;;;19.88;13.77;;;32.90;22.60;;;22.49;52.28;96913.53;4958631;28;20056;-69
2021/10/09 10:46:27;;;;;;;17.35;13.75;;;33.30;22.40;;;22.87;44.58;96914.69;4955343;28;20043;-70
2021/10/09 10:51:42;;;;;;;18.73;12.90;;;34.90;21.30;;;24.06;49.33;96908.56;4974739;28;20104;-68
2021/10/09 10:57:01;;;;;;;20.75;13.07;;;37.00;19.40;;;25.65;40.39;96903.94;4975504;28;20049;-68
2021/10/09 11:02:30;;;;;;;19.73;12.73;;;36.90;19.00;;;26.73;36.68;96887.63;4972493;28;20050;-69
2021/10/09 11:05:09;;;;;;;18.02;10.77;;;37.60;18.30;;;27.21;36.68;96892.66;4955905;28;20045;-68
2021/10/09 11:07:40;;;;;;;16.70;12.30;;;38.50;17.20;;;27.81;39.54;96883.47;4953211;28;20038;-69
2021/10/09 11:10:08;;;;;;;16.75;11.55;;;39.50;16.20;;;28.26;39.60;96881.56;4953432;28;20840;-69
2021/10/09 11:12:44;;;;;;;13.70;9.88;;;39.70;16.00;;;28.74;33.71;96881.66;4973543;28;20070;-69
2021/10/09 11:15:22;;;;;;;16.67;10.57;;;40.30;15.50;;;29.26;33.33;96878.97;4957804;28;20042;-70
2021/10/09 11:17:55;;;;;;;12.35;8.70;;;40.60;15.50;;;29.81;31.94;96873.94;4977706;28;20033;-70
2021/10/09 11:20:29;;;;;;;12.85;9.73;;;41.30;15.10;;;30.35;31.61;96867.16;4993115;28;20030;-71
2021/10/09 11:22:58;;;;;;;14.88;8.70;;;41.80;14.50;;;30.77;35.98;96873.50;4989769;28;20065;-70
2021/10/09 11:25:31;;;;;;;;;;;42.00;14.40;;;30.91;28.49;96868.91;4957527;28;20396;-70
2021/10/09 11:28:00;;;;;;;15.50;8.52;;;41.90;14.20;;;31.05;34.77;96875.16;4973511;28;20493;-70
2021/10/09 11:30:26;;;;;;;12.52;8.27;;;41.40;14.30;;;31.39;34.73;96863.09;4938417;28;20070;-70
2021/10/09 11:32:54;;;;;;;13.35;8.45;;;42.00;13.60;;;31.50;32.67;96860.97;4938846;28;20039;-69
2021/10/09 11:35:32;;;;;;;12.77;8.95;;;41.90;13.80;;;31.52;27.85;96862.28;4937169;28;20031;-71
2021/10/09 11:37:58;;;;;;;18.90;8.27;;;41.70;13.80;;;31.57;32.76;96866.78;4934728;28;20030;-71
2021/10/09 11:40:51;;;;;;;12.00;8.00;;;41.80;14.20;;;31.94;26.93;96858.38;4956542;28;20036;-72
2021/10/09 11:54:35;;;;;;;10.20;7.57;;;42.40;13.40;;;32.89;25.35;96850.84;4960617;28;20108;-72
2021/10/09 11:57:03;;;;;;;12.32;8.40;;;42.50;13.50;;;33.40;26.76;96854.88;4942985;28;20027;-72
2021/10/09 11:59:38;;;;;;;14.05;8.68;;;42.90;13.70;;;33.79;24.68;96850.47;4968301;28;20043;-70
2021/10/09 12:02:04;;;;;;;8.00;6.38;;;43.00;13.50;;;33.47;27.64;96843.50;4945429;28;20049;-72
2021/10/09 12:04:30;;;;;;;10.18;6.78;;;42.10;13.30;;;33.62;27.12;96839.53;4937570;28;20137;-71
2021/10/09 12:07:18;;;;;;;10.48;6.60;;;42.50;13.60;;;33.81;26.24;96837.28;4961531;28;20046;-71
2021/10/09 12:09:45;;;;;;;16.95;6.93;;;42.40;13.10;;;33.80;25.73;96836.50;4973600;28;20030;-72
2021/10/09 12:12:21;;;;;;;10.85;6.85;;;42.40;13.20;;;33.71;26.06;96843.84;4937464;28;20034;-71
2021/10/09 12:14:49;;;;;;;7.85;5.88;;;42.30;13.50;;;33.43;25.57;96843.34;4953606;28;20043;-71
2021/10/09 12:17:15;;;;;;;8.48;6.07;;;41.90;13.20;;;33.41;25.77;96839.31;4953623;28;20039;-71
2021/10/09 12:19:41;;;;;;;8.80;6.50;;;41.50;13.50;;;33.34;25.84;96828.91;4932096;28;20096;-70
2021/10/09 12:22:11;;;;;;;8.43;6.30;;;41.20;13.40;;;33.35;24.10;96830.50;4955495;28;20042;-71
2021/10/09 12:24:52;;;;;;;10.95;6.03;;;41.30;13.70;;;33.23;22.90;96832.19;4940953;28;20053;-71
2021/10/09 12:27:27;;;;;;;11.50;5.90;;;40.50;13.90;;;32.92;23.09;96819.44;4952972;28;20289;-71
2021/10/09 12:30:07;;;;;;;9.27;5.28;;;40.20;14.10;;;32.95;22.73;96826.19;4941018;28;20046;-71
2021/10/09 12:32:45;;;;;;;10.13;5.68;;;40.30;14.40;;;33.11;22.57;96830.09;4972424;28;20047;-70
2021/10/09 12:35:14;;;;;;;10.93;6.43;;;39.90;14.20;;;32.99;24.22;96832.59;4955643;28;20038;-71